Time;durP1;ratioP1;P1;durP2;ratioP2;P2;SDS_P1;SDS_P2;PMS_P1;PMS_P2;Temp;Humidity;BMP_temperature;BMP_pressure;BME280_temperature;BME280_humidity;BME280_pressure;Samples;Min_cycle;Max_cycle;Signal;HPM_P1;HPM_P2
2022/06/01 00:02:09;;;;;;;31.02;27.40;;;;;;;9.49;95.81;101246.69;5032591;28;20068;-61
2022/06/01 00:04:35;;;;;;;32.55;28.90;;;;;;;9.47;96.08;101251.66;5032512;28;20441;-61
2022/06/01 00:07:00;;;;;;;32.78;28.13;;;;;;;9.50;95.99;101248.34;5032797;28;20029;-61
2022/06/01 00:09:26;;;;;;;31.38;27.35;;;;;;;9.55;95.88;101253.00;5032379;28;20513;-62
2022/06/01 00:11:51;;;;;;;31.50;27.90;;;;;;;9.56;96.33;101251.88;5032324;28;20025;-62
2022/06/01 00:14:17;;;;;;;32.60;27.42;;;;;;;9.56;95.18;101251.06;5032474;28;20108;-62
2022/06/01 00:16:42;;;;;;;31.30;27.83;;;;;;;9.58;95.04;101257.13;5032462;28;20026;-61
2022/06/01 00:19:08;;;;;;;31.23;27.70;;;;;;;9.54;95.23;101254.13;5032173;28;20033;-62
2022/06/01 00:21:34;;;;;;;30.48;27.17;;;;;;;9.54;95.23;101264.34;5032400;28;20079;-61
2022/06/01 00:23:59;;;;;;;30.98;26.60;;;;;;;9.55;95.06;101257.69;5032836;28;20029;-61
2022/06/01 00:26:25;;;;;;;31.30;27.17;;;;;;;9.56;94.79;101260.19;5014309;28;20071;-61
2022/06/01 00:28:50;;;;;;;31.90;28.17;;;;;;;9.53;94.99;101263.50;5032279;28;20498;-61
2022/06/01 00:31:16;;;;;;;31.13;27.35;;;;;;;9.49;95.22;101257.75;5032116;28;20091;-62
2022/06/01 00:33:42;;;;;;;31.90;28.15;;;;;;;9.46;95.38;101255.53;5032309;28;20454;-63
2022/06/01 00:36:10;;;;;;;31.70;27.92;;;;;;;9.44;95.08;101259.72;5032340;28;20033;-63
2022/06/01 00:38:35;;;;;;;32.38;28.50;;;;;;;9.45;95.61;101259.41;5032367;28;20465;-63
2022/06/01 00:41:01;;;;;;;32.25;27.80;;;;;;;9.37;95.37;101254.50;5032208;28;20028;-62
2022/06/01 00:43:44;;;;;;;31.80;27.98;;;;;;;9.36;95.60;101253.72;5032307;28;20504;-62
2022/06/01 00:46:12;;;;;;;33.33;29.08;;;;;;;9.41;95.26;101261.13;5032374;28;20036;-62
2022/06/01 00:48:40;;;;;;;34.28;30.00;;;;;;;9.40;95.77;101258.66;5032587;28;20026;-62
2022/06/01 00:51:08;;;;;;;33.13;28.70;;;;;;;9.36;95.43;101259.22;5031672;28;20021;-62
2022/06/01 00:53:37;;;;;;;32.22;28.40;;;;;;;9.30;95.75;101251.25;5032228;28;20032;-62
2022/06/01 00:56:08;;;;;;;33.58;27.77;;;;;;;9.23;96.23;101246.06;5035966;28;20033;-62
2022/06/01 00:58:39;;;;;;;32.60;28.92;;;;;;;9.24;95.90;101253.22;5036156;28;20029;-62
2022/06/01 01:01:08;;;;;;;32.08;28.05;;;;;;;9.24;96.03;101258.75;5036052;28;20033;-63
2022/06/01 01:03:36;;;;;;;33.40;28.80;;;;;;;9.21;95.94;101251.03;5036008;28;20022;-62
2022/06/01 01:06:11;;;;;;;34.28;28.67;;;;;;;9.22;95.77;101252.69;5035495;28;20033;-62
2022/06/01 01:08:38;;;;;;;32.55;28.38;;;;;;;9.17;95.91;101244.47;5035864;28;20473;-62
2022/06/01 01:11:06;;;;;;;32.38;28.15;;;;;;;9.18;95.71;101246.91;5035859;28;20033;-62
2022/06/01 01:13:31;;;;;;;33.47;29.35;;;;;;;9.14;96.17;101248.63;5036082;28;20033;-62
2022/06/01 01:15:59;;;;;;;33.33;29.17;;;;;;;9.16;96.37;101248.31;5035743;28;20025;-62
2022/06/01 01:18:35;;;;;;;32.85;28.50;;;;;;;9.11;96.64;101249.19;5035446;28;20053;-62
2022/06/01 01:21:20;;;;;;;31.67;27.70;;;;;;;9.08;96.31;101243.41;5035729;28;20037;-62
2022/06/01 01:23:57;;;;;;;32.55;27.80;;;;;;;9.08;96.90;101247.00;5035536;28;20029;-62
2022/06/01 01:26:25;;;;;;;33.40;29.65;;;;;;;9.07;96.44;101244.53;5035233;28;20076;-62
2022/06/01 01:28:50;;;;;;;32.80;27.77;;;;;;;9.12;96.38;101242.56;5035897;28;20037;-62
2022/06/01 01:31:19;;;;;;;33.22;28.55;;;;;;;9.18;96.57;101251.63;5035222;28;20026;-62
2022/06/01 01:33:46;;;;;;;33.83;28.88;;;;;;;9.21;96.08;101249.13;5035609;28;20037;-62
2022/06/01 01:36:14;;;;;;;32.60;29.00;;;;;;;9.30;95.58;101248.50;5035329;28;20056;-62
2022/06/01 01:38:53;;;;;;;33.53;29.00;;;;;;;9.31;95.47;101239.13;5035379;28;20296;-62
2022/06/01 01:41:28;;;;;;;34.38;29.08;;;;;;;9.36;95.23;101242.66;5035474;28;20022;-61
2022/06/01 01:43:57;;;;;;;34.70;29.60;;;;;;;9.36;95.73;101233.53;5035687;28;20141;-62
2022/06/01 01:46:23;;;;;;;34.90;29.25;;;;;;;9.39;95.40;101238.50;5035488;28;20034;-61
2022/06/01 01:48:49;;;;;;;36.30;29.88;;;;;;;9.38;95.58;101244.31;5035557;28;20171;-62
2022/06/01 01:51:23;;;;;;;36.03;30.70;;;;;;;9.34;95.80;101233.03;5034774;28;20060;-62
2022/06/01 01:53:49;;;;;;;33.45;29.13;;;;;;;9.42;95.53;101250.88;5035431;28;20032;-63
2022/06/01 01:56:42;;;;;;;35.75;30.63;;;;;;;9.42;95.58;101235.16;5034770;28;20033;-62
2022/06/01 01:59:21;;;;;;;35.35;30.05;;;;;;;9.49;95.48;101251.41;5014453;28;20072;-61
2022/06/01 02:01:55;;;;;;;35.40;30.83;;;;;;;9.44;95.33;101240.38;5035191;28;20366;-62
2022/06/01 02:07:34;;;;;;;35.75;29.92;;;;;;;9.48;96.07;101255.28;5033688;28;20053;-62
2022/06/01 02:12:46;;;;;;;36.17;31.50;;;;;;;9.50;95.61;101262.16;5034946;28;20121;-62
2022/06/01 02:15:20;;;;;;;34.83;29.88;;;;;;;9.51;96.18;101255.53;5034481;28;20034;-62
2022/06/01 02:17:49;;;;;;;37.53;31.83;;;;;;;9.49;96.60;101252.22;5034375;28;20053;-61
2022/06/01 02:20:33;;;;;;;38.28;32.85;;;;;;;9.56;97.04;101253.81;5034364;28;20108;-62
2022/06/01 02:23:01;;;;;;;37.53;32.00;;;;;;;9.52;96.42;101243.38;5035142;28;20030;-62
2022/06/01 02:25:27;;;;;;;37.33;32.47;;;;;;;9.51;97.10;101255.53;5034538;28;20061;-62
2022/06/01 02:27:57;;;;;;;37.38;32.58;;;;;;;9.49;96.77;101254.16;5034766;28;20087;-62
2022/06/01 02:30:30;;;;;;;37.20;32.35;;;;;;;9.50;96.76;101245.59;5034627;28;20132;-61
2022/06/01 02:32:57;;;;;;;37.40;32.03;;;;;;;9.52;96.48;101253.56;5034364;28;20032;-61
2022/06/01 02:35:24;;;;;;;37.17;33.10;;;;;;;9.50;96.60;101250.25;5034461;28;20500;-61
2022/06/01 02:37:54;;;;;;;39.75;33.10;;;;;;;9.51;97.44;101252.75;5034338;28;20026;-61
2022/06/01 02:40:23;;;;;;;36.67;32.05;;;;;;;9.48;96.88;101245.03;5034152;28;20072;-61
2022/06/01 02:42:50;;;;;;;38.38;32.00;;;;;;;9.44;96.78;101245.91;5033976;28;20045;-62
2022/06/01 02:45:18;;;;;;;38.83;32.42;;;;;;;9.46;96.87;101249.22;5033973;28;20029;-62
2022/06/01 02:47:45;;;;;;;38.47;33.13;;;;;;;9.50;96.56;101251.09;5034700;28;20083;-62
2022/06/01 02:50:16;;;;;;;37.22;31.38;;;;;;;9.48;96.80;101242.28;5034357;28;20021;-62
2022/06/01 02:52:42;;;;;;;36.80;31.50;;;;;;;9.46;96.06;101246.44;5034776;28;20108;-62
2022/06/01 02:55:09;;;;;;;37.78;31.75;;;;;;;9.39;96.04;101245.97;5034477;28;20060;-62
2022/06/01 02:57:35;;;;;;;37.58;32.10;;;;;;;9.34;96.36;101244.88;5033800;28;20022;-62
2022/06/01 03:00:04;;;;;;;38.85;33.35;;;;;;;9.27;96.23;101244.38;5034224;28;20034;-62
2022/06/01 03:02:29;;;;;;;38.17;32.38;;;;;;;9.21;96.71;101240.84;5033646;28;20029;-62
2022/06/01 03:04:54;;;;;;;38.17;32.17;;;;;;;9.16;96.44;101234.53;5033770;28;20090;-62
2022/06/01 03:07:20;;;;;;;37.92;32.17;;;;;;;9.08;96.86;101235.13;5033950;28;20026;-62
2022/06/01 03:09:45;;;;;;;39.28;33.17;;;;;;;9.02;96.71;101242.63;5033406;28;20323;-62
2022/06/01 03:12:11;;;;;;;39.83;31.65;;;;;;;8.93;96.77;101247.09;5033243;28;20104;-62
2022/06/01 03:14:36;;;;;;;38.38;32.67;;;;;;;8.85;97.64;101243.84;5033097;28;20095;-62
2022/06/01 03:17:04;;;;;;;39.28;32.00;;;;;;;8.81;97.58;101251.00;5015128;28;20026;-63
2022/06/01 03:19:29;;;;;;;39.58;30.98;;;;;;;8.78;97.45;101248.00;5033012;28;20022;-63
2022/06/01 03:21:54;;;;;;;35.78;30.38;;;;;;;8.76;97.37;101252.97;5032883;28;20377;-63
2022/06/01 03:24:20;;;;;;;39.25;32.90;;;;;;;8.71;97.42;101249.16;5032413;28;20026;-62
2022/06/01 03:26:46;;;;;;;37.97;31.52;;;;;;;8.66;97.75;101246.41;5032677;28;20521;-62
2022/06/01 03:29:12;;;;;;;38.33;31.83;;;;;;;8.63;98.08;101247.00;5014779;28;20041;-62
2022/06/01 03:31:38;;;;;;;39.40;32.22;;;;;;;8.58;97.89;101249.75;5033122;28;20031;-62
2022/06/01 03:34:03;;;;;;;38.75;31.67;;;;;;;8.53;98.06;101241.53;5032766;28;20059;-62
2022/06/01 03:36:28;;;;;;;38.15;31.48;;;;;;;8.52;98.29;101253.66;5033126;28;20456;-62
2022/06/01 03:38:54;;;;;;;38.67;31.55;;;;;;;8.49;98.32;101254.22;5033362;28;20029;-62
2022/06/01 03:41:19;;;;;;;39.53;32.00;;;;;;;8.46;98.81;101257.47;5032962;28;20022;-62
2022/06/01 03:46:31;;;;;;;;;;;;;;;8.43;97.00;101254.22;5033842;28;20086;-62
2022/06/01 03:48:57;;;;;;;39.70;31.20;;;;;;;8.39;97.57;101249.53;5032991;28;20004;-62
2022/06/01 03:51:24;;;;;;;41.17;31.88;;;;;;;8.36;98.48;101255.59;5032787;28;20104;-62
2022/06/01 03:53:49;;;;;;;38.40;31.85;;;;;;;8.38;98.50;101268.00;5033139;28;20065;-62
2022/06/01 03:56:15;;;;;;;39.50;31.45;;;;;;;8.47;98.15;101260.00;5015424;28;20044;-62
2022/06/01 03:58:40;;;;;;;36.83;30.50;;;;;;;8.61;97.24;101256.63;5032786;28;20021;-62
2022/06/01 04:01:06;;;;;;;40.47;29.25;;;;;;;8.70;96.33;101261.28;5032655;28;20044;-62
2022/06/01 04:03:32;;;;;;;36.95;29.40;;;;;;;8.78;96.20;101273.66;5033021;28;20064;-62
2022/06/01 04:05:57;;;;;;;36.35;28.10;;;;;;;8.78;96.22;101267.31;5032655;28;20064;-62
2022/06/01 04:08:23;;;;;;;35.53;28.63;;;;;;;8.80;95.63;101271.44;5032717;28;20045;-62
2022/06/01 04:10:49;;;;;;;36.97;29.38;;;;;;;8.84;95.45;101267.00;5032397;28;20039;-62
2022/06/01 04:13:15;;;;;;;35.47;28.67;;;;;;;8.88;94.59;101270.03;5014612;28;20025;-62
2022/06/01 04:15:41;;;;;;;34.28;27.80;;;;;;;8.90;94.99;101274.13;5032539;28;20075;-62
2022/06/01 04:18:07;;;;;;;34.08;27.20;;;;;;;8.91;94.73;101269.47;5032653;28;20030;-62
2022/06/01 04:20:32;;;;;;;34.15;26.73;;;;;;;8.92;94.79;101270.28;5032562;28;20469;-63
2022/06/01 04:23:00;;;;;;;35.53;26.30;;;;;;;8.94;94.66;101268.88;5032488;28;20033;-61
2022/06/01 04:25:26;;;;;;;32.55;26.55;;;;;;;8.98;94.70;101272.72;5031830;28;20058;-63
2022/06/01 04:27:51;;;;;;;33.67;26.13;;;;;;;9.01;94.32;101274.94;5032460;28;20029;-61
2022/06/01 04:30:17;;;;;;;32.28;26.48;;;;;;;9.07;94.46;101272.13;5031632;28;20041;-63
2022/06/01 04:32:46;;;;;;;31.45;25.13;;;;;;;9.14;93.79;101261.59;5032418;28;20506;-63
2022/06/01 04:35:11;;;;;;;33.47;25.42;;;;;;;9.20;93.91;101260.47;5031853;28;20041;-63
2022/06/01 04:37:36;;;;;;;34.85;27.00;;;;;;;9.28;93.63;101261.75;5032301;28;20090;-63
2022/06/01 04:40:03;;;;;;;32.60;25.73;;;;;;;9.29;93.19;101260.66;5032095;28;20522;-62
2022/06/01 04:42:28;;;;;;;33.33;25.20;;;;;;;9.33;93.05;101265.31;5032566;28;20522;-63
2022/06/01 04:44:54;;;;;;;32.20;25.70;;;;;;;9.29;92.91;101258.75;5032117;28;20156;-63
2022/06/01 04:47:19;;;;;;;30.95;25.23;;;;;;;9.35;92.90;101262.28;5032217;28;20142;-63
2022/06/01 04:49:46;;;;;;;29.73;24.23;;;;;;;9.42;92.85;101262.78;5032213;28;20111;-63
2022/06/01 04:52:14;;;;;;;31.80;24.50;;;;;;;9.46;92.44;101266.59;5032099;28;20029;-63
2022/06/01 04:54:40;;;;;;;33.95;25.00;;;;;;;9.56;92.51;101271.22;5032045;28;20434;-63
2022/06/01 04:57:06;;;;;;;33.15;24.13;;;;;;;9.58;91.51;101273.69;5031856;28;20033;-63
2022/06/01 04:59:32;;;;;;;34.28;25.75;;;;;;;9.57;92.10;101267.34;5032473;28;20152;-63
2022/06/01 05:01:58;;;;;;;29.88;23.40;;;;;;;9.64;91.90;101273.38;5031908;28;20029;-63
2022/06/01 05:04:23;;;;;;;33.00;24.80;;;;;;;9.62;91.97;101270.06;5031907;28;20052;-63
2022/06/01 05:06:49;;;;;;;31.65;25.55;;;;;;;9.67;91.94;101271.94;5031850;28;20022;-62
2022/06/01 05:09:14;;;;;;;30.85;24.40;;;;;;;9.66;91.87;101273.91;5031958;28;20103;-62
2022/06/01 05:11:39;;;;;;;32.47;23.73;;;;;;;9.67;91.32;101270.03;5031891;28;20061;-63
2022/06/01 05:14:05;;;;;;;31.08;24.25;;;;;;;9.66;91.53;101276.66;5032303;28;20033;-63
2022/06/01 05:16:31;;;;;;;30.45;23.52;;;;;;;9.72;92.14;101273.84;5032215;28;20372;-63
2022/06/01 05:18:57;;;;;;;33.85;23.92;;;;;;;9.72;91.79;101274.69;5032146;28;20021;-63
2022/06/01 05:21:22;;;;;;;31.48;23.15;;;;;;;9.79;91.84;101282.63;5032134;28;20060;-63
2022/06/01 05:23:47;;;;;;;31.50;23.33;;;;;;;9.85;91.88;101267.66;5031970;28;20045;-63
2022/06/01 05:26:13;;;;;;;32.63;24.50;;;;;;;9.91;91.93;101271.19;5014035;28;20050;-63
2022/06/01 05:28:38;;;;;;;29.83;23.67;;;;;;;9.93;91.12;101268.94;5032053;28;20032;-62
2022/06/01 05:31:10;;;;;;;31.90;24.38;;;;;;;9.94;91.41;101267.84;5031814;28;20029;-62
2022/06/01 05:33:37;;;;;;;30.42;23.85;;;;;;;9.94;92.10;101279.72;5031707;28;20033;-62
2022/06/01 05:36:03;;;;;;;32.25;23.67;;;;;;;9.99;92.21;101265.03;5032090;28;20140;-62
2022/06/01 05:38:28;;;;;;;34.08;24.42;;;;;;;10.06;92.28;101268.28;5013739;28;20104;-62
2022/06/01 05:40:54;;;;;;;30.55;24.17;;;;;;;10.11;92.33;101273.72;5033434;28;20037;-62
2022/06/01 05:43:20;;;;;;;33.15;24.38;;;;;;;10.16;92.10;101272.84;5035343;28;20041;-62
2022/06/01 05:45:46;;;;;;;31.40;24.08;;;;;;;10.19;92.33;101277.81;5035448;28;20029;-62
2022/06/01 05:48:14;;;;;;;32.97;24.58;;;;;;;10.18;92.83;101267.06;5035008;28;20377;-62
2022/06/01 05:50:40;;;;;;;33.25;23.77;;;;;;;10.30;92.34;101289.56;5034955;28;20080;-62
2022/06/01 05:53:06;;;;;;;30.15;22.27;;;;;;;10.36;91.86;101285.66;5017616;28;20029;-62
2022/06/01 05:55:32;;;;;;;30.52;22.92;;;;;;;10.43;91.86;101285.34;5034904;28;20103;-62
2022/06/01 05:57:58;;;;;;;32.50;22.52;;;;;;;10.52;91.57;101296.56;5035621;28;20033;-62
2022/06/01 06:00:24;;;;;;;31.45;21.95;;;;;;;10.57;90.87;101291.78;5034967;28;20021;-62
2022/06/01 06:02:49;;;;;;;30.70;21.75;;;;;;;10.63;90.60;101288.97;5034703;28;20029;-63
2022/06/01 06:07:59;;;;;;;30.23;21.05;;;;;;;10.74;89.63;101302.38;5034823;28;20095;-62
2022/06/01 06:10:26;;;;;;;29.45;21.35;;;;;;;10.81;90.95;101299.25;5034386;28;20034;-62
2022/06/01 06:12:52;;;;;;;29.42;21.55;;;;;;;10.88;90.21;101296.94;5034689;28;20025;-63
2022/06/01 06:15:18;;;;;;;28.55;20.40;;;;;;;10.95;89.61;101293.81;5016369;28;20040;-63
2022/06/01 06:17:43;;;;;;;27.75;19.95;;;;;;;11.06;89.41;101300.84;5035479;28;20142;-62
2022/06/01 06:20:09;;;;;;;28.63;20.83;;;;;;;11.13;89.37;101297.72;5016301;28;20434;-63
2022/06/01 06:22:35;;;;;;;29.85;20.73;;;;;;;11.23;89.57;101300.31;5034572;28;20078;-61
2022/06/01 06:25:00;;;;;;;30.25;20.65;;;;;;;11.32;89.49;101305.19;5033929;28;20488;-63
2022/06/01 06:27:27;;;;;;;28.20;19.17;;;;;;;11.36;89.13;101307.06;5033603;28;20364;-63
2022/06/01 06:29:53;;;;;;;28.10;18.75;;;;;;;11.38;88.89;101309.56;5034405;28;20056;-64
2022/06/01 06:32:18;;;;;;;28.95;19.60;;;;;;;11.46;88.44;101314.41;5034536;28;20028;-63
2022/06/01 06:34:44;;;;;;;28.30;19.23;;;;;;;11.56;88.39;101302.31;5022294;28;20034;-64
2022/06/01 06:37:09;;;;;;;28.70;20.17;;;;;;;11.65;88.00;101310.78;4999856;28;20034;-63
2022/06/01 06:39:36;;;;;;;28.05;18.67;;;;;;;11.69;87.89;101309.88;5002186;28;20168;-63
2022/06/01 06:42:01;;;;;;;27.35;18.90;;;;;;;11.75;87.89;101307.84;5012771;28;20374;-62
2022/06/01 06:44:27;;;;;;;25.58;18.02;;;;;;;11.85;87.00;101317.94;5021018;28;20032;-63
2022/06/01 06:46:52;;;;;;;26.33;17.35;;;;;;;11.92;86.61;101318.34;5029513;28;20029;-61
2022/06/01 06:49:17;;;;;;;26.55;17.33;;;;;;;11.97;86.22;101325.75;5023982;28;20029;-63
2022/06/01 06:51:43;;;;;;;24.85;17.55;;;;;;;12.02;85.32;101325.72;5021243;28;20085;-63
2022/06/01 06:54:10;;;;;;;24.95;17.98;;;;;;;12.05;85.14;101327.06;5021850;28;20378;-63
2022/06/01 06:56:36;;;;;;;25.23;18.05;;;;;;;12.13;85.79;101331.91;5013632;28;20588;-63
2022/06/01 06:59:02;;;;;;;25.73;17.85;;;;;;;12.18;84.87;101329.06;5034068;28;20029;-64
2022/06/01 07:01:27;;;;;;;27.08;17.73;;;;;;;12.25;85.36;101331.41;5032929;28;20115;-64
2022/06/01 07:03:53;;;;;;;24.10;16.83;;;;;;;12.35;85.14;101335.94;5032017;28;20029;-63
2022/06/01 07:06:19;;;;;;;24.65;16.35;;;;;;;12.40;84.66;101327.53;5032060;28;20115;-63
2022/06/01 07:08:48;;;;;;;23.70;15.95;;;;;;;12.44;83.67;101342.44;5014324;28;20030;-63
2022/06/01 07:11:15;;;;;;;23.38;16.17;;;;;;;12.53;83.64;101342.53;5032036;28;20115;-63
2022/06/01 07:13:41;;;;;;;23.40;15.98;;;;;;;12.60;84.07;101352.09;5032170;28;20025;-63
2022/06/01 07:16:19;;;;;;;22.83;15.85;;;;;;;12.69;82.48;101345.84;5032048;28;20397;-64
2022/06/01 07:18:47;;;;;;;22.63;14.75;;;;;;;12.74;81.90;101337.41;5032025;28;20041;-63
2022/06/01 07:21:16;;;;;;;21.30;14.60;;;;;;;12.84;82.22;101339.16;5032312;28;20029;-65
2022/06/01 07:23:41;;;;;;;24.33;15.38;;;;;;;12.89;81.41;101345.41;5031894;28;20108;-63
2022/06/01 07:26:11;;;;;;;20.98;13.52;;;;;;;12.97;80.14;101348.59;5031736;28;20133;-64
2022/06/01 07:28:38;;;;;;;20.98;13.63;;;;;;;12.95;78.49;101340.59;5031873;28;20124;-64
2022/06/01 07:31:04;;;;;;;22.17;14.95;;;;;;;12.99;79.39;101349.09;5031673;28;20036;-64
2022/06/01 07:33:30;;;;;;;22.65;13.70;;;;;;;13.03;78.86;101339.03;5031628;28;20421;-63
2022/06/01 07:35:57;;;;;;;22.33;14.18;;;;;;;13.17;78.21;101348.16;5031587;28;20099;-64
2022/06/01 07:43:52;;;;;;;21.58;13.57;;;;;;;13.32;77.10;101348.97;5031901;28;20356;-63
2022/06/01 07:46:18;;;;;;;21.05;14.23;;;;;;;13.34;76.55;101344.72;5031664;28;20034;-62
2022/06/01 07:48:44;;;;;;;24.13;14.52;;;;;;;13.45;76.39;101342.56;5031581;28;20064;-62
2022/06/01 07:51:09;;;;;;;20.75;13.50;;;;;;;13.49;76.04;101340.81;5031403;28;20049;-63
2022/06/01 07:53:34;;;;;;;22.98;15.05;;;;;;;13.67;74.91;101352.88;5013511;28;20060;-63
2022/06/01 07:56:00;;;;;;;20.17;14.20;;;;;;;13.89;74.09;101349.28;5030167;28;20029;-63
2022/06/01 07:58:25;;;;;;;20.42;13.63;;;;;;;14.18;72.83;101344.41;5030917;28;20033;-63
2022/06/01 08:00:51;;;;;;;20.80;14.18;;;;;;;14.37;72.75;101341.38;5029753;28;20029;-63
2022/06/01 08:03:17;;;;;;;20.90;14.15;;;;;;;14.44;72.07;101340.91;5013081;28;20148;-63
2022/06/01 08:05:43;;;;;;;21.75;13.63;;;;;;;14.50;71.21;101342.41;5030353;28;20021;-62
2022/06/01 08:08:09;;;;;;;19.58;13.73;;;;;;;14.46;70.07;101345.00;5013234;28;20469;-67
2022/06/01 08:10:36;;;;;;;23.00;14.40;;;;;;;14.34;69.43;101348.41;5031179;28;20464;-62
2022/06/01 08:13:09;;;;;;;21.33;14.10;;;;;;;14.30;70.73;101339.06;5030505;28;20044;-62
2022/06/01 08:15:41;;;;;;;20.98;14.50;;;;;;;14.52;70.71;101345.69;5031111;28;20057;-61
2022/06/01 08:18:07;;;;;;;20.40;14.30;;;;;;;14.81;69.10;101344.38;5030867;28;20122;-63
2022/06/01 08:20:34;;;;;;;19.75;13.25;;;;;;;15.01;66.19;101340.19;5030586;28;20385;-62
2022/06/01 08:23:00;;;;;;;22.50;13.02;;;;;;;15.15;66.67;101353.13;5030577;28;20029;-62
2022/06/01 08:25:26;;;;;;;21.70;14.18;;;;;;;15.35;67.69;101346.13;5030515;28;20056;-63
2022/06/01 08:27:52;;;;;;;20.67;14.80;;;;;;;15.41;66.54;101350.38;5030437;28;20413;-64
2022/06/01 08:30:21;;;;;;;22.50;15.73;;;;;;;15.26;66.20;101346.09;5030868;28;20041;-64
2022/06/01 08:32:47;;;;;;;20.95;14.70;;;;;;;15.25;65.94;101348.09;5030752;28;20025;-64
2022/06/01 08:35:16;;;;;;;20.55;14.00;;;;;;;15.06;66.46;101328.88;5009846;28;20026;-64
2022/06/01 08:37:42;;;;;;;21.80;15.60;;;;;;;15.10;66.86;101340.19;5011521;28;20029;-64
2022/06/01 08:40:08;;;;;;;21.60;16.08;;;;;;;15.25;67.88;101342.50;5011231;28;20045;-64
2022/06/01 08:42:35;;;;;;;22.90;15.75;;;;;;;15.48;64.55;101333.97;5009907;28;20030;-64
2022/06/01 08:45:06;;;;;;;21.13;14.77;;;;;;;15.54;64.46;101331.84;5011307;28;20156;-63
2022/06/01 08:47:38;;;;;;;20.30;14.18;;;;;;;15.54;63.14;101338.25;5005040;28;20512;-63
2022/06/01 08:50:10;;;;;;;21.67;14.48;;;;;;;15.46;63.57;101333.47;5019704;28;20034;-61
2022/06/01 08:52:35;;;;;;;21.73;14.52;;;;;;;15.39;63.85;101347.09;5019722;28;20041;-63
2022/06/01 08:55:01;;;;;;;22.55;14.20;;;;;;;15.33;63.19;101340.06;5020862;28;20060;-63
2022/06/01 08:57:31;;;;;;;20.30;14.13;;;;;;;15.26;63.60;101341.34;5019965;28;20321;-63
2022/06/01 09:00:11;;;;;;;20.13;13.68;;;;;;;15.22;63.70;101345.94;5019618;28;20108;-63
2022/06/01 09:02:51;;;;;;;19.65;14.10;;;;;;;15.16;64.39;101344.44;5011347;28;20034;-63
2022/06/01 09:05:42;;;;;;;19.95;13.75;;;;;;;15.14;63.70;101338.41;5011496;28;20034;-63
2022/06/01 09:08:28;;;;;;;20.38;14.25;;;;;;;15.18;63.87;101342.16;5012935;28;20056;-62
2022/06/01 09:10:57;;;;;;;20.40;13.50;;;;;;;15.34;61.28;101348.09;5022511;28;20370;-63
2022/06/01 09:13:34;;;;;;;19.98;13.95;;;;;;;15.42;61.65;101341.69;5031728;28;20445;-62
2022/06/01 09:16:07;;;;;;;19.60;13.30;;;;;;;15.35;61.13;101334.97;5015997;28;20465;-62
2022/06/01 09:18:36;;;;;;;;;;;;;;;15.35;62.94;101341.38;5036610;28;20421;-62
2022/06/01 09:23:46;;;;;;;19.73;13.55;;;;;;;14.79;61.20;101352.22;5035638;28;20510;-62
2022/06/01 09:26:29;;;;;;;20.63;13.57;;;;;;;14.54;62.26;101351.78;5035755;28;20042;-62
2022/06/01 09:28:57;;;;;;;20.13;13.75;;;;;;;14.43;62.88;101361.53;5035508;28;20170;-62
2022/06/01 09:31:32;;;;;;;19.17;13.93;;;;;;;14.23;65.51;101351.78;5035591;28;20028;-63
2022/06/01 09:34:27;;;;;;;19.80;14.32;;;;;;;14.32;64.67;101377.69;5035502;28;20104;-63
2022/06/01 09:37:19;;;;;;;19.58;13.68;;;;;;;14.09;68.46;101391.63;5017468;28;20026;-63
2022/06/01 09:39:51;;;;;;;19.10;13.45;;;;;;;13.61;71.14;101393.06;5035340;28;20113;-63
2022/06/01 09:42:25;;;;;;;19.02;12.75;;;;;;;13.02;72.88;101396.53;5015338;28;20030;-63
2022/06/01 09:44:53;;;;;;;19.10;11.80;;;;;;;12.74;75.45;101404.84;5026200;28;20013;-64
2022/06/01 09:47:28;;;;;;;18.02;11.90;;;;;;;12.56;75.63;101389.09;5025387;28;20030;-64
2022/06/01 09:49:58;;;;;;;18.27;11.68;;;;;;;12.50;76.91;101385.59;5033322;28;20018;-64
2022/06/01 09:52:35;;;;;;;17.80;11.13;;;;;;;12.56;77.73;101384.41;5035445;28;20045;-64
2022/06/01 09:55:13;;;;;;;16.55;10.75;;;;;;;12.79;76.06;101392.81;5017398;28;20507;-64
2022/06/01 09:57:38;;;;;;;18.20;11.25;;;;;;;13.02;76.62;101398.50;5012095;28;20049;-64
2022/06/01 10:06:06;;;;;;;;;;;;;;;13.84;73.01;101382.78;5016645;28;20033;-64
2022/06/01 10:08:32;;;;;;;16.23;10.65;;;;;;;13.91;74.29;101382.34;5024893;28;19917;-64
2022/06/01 10:11:03;;;;;;;17.15;10.95;;;;;;;13.97;75.10;101395.00;5018906;28;20480;-64
2022/06/01 10:13:33;;;;;;;16.55;10.63;;;;;;;13.98;75.52;101401.38;5013533;28;20438;-64
2022/06/01 10:16:35;;;;;;;15.95;10.68;;;;;;;13.97;74.82;101414.47;5013464;28;20040;-63
2022/06/01 10:19:02;;;;;;;17.67;11.20;;;;;;;13.84;75.86;101407.81;5013620;28;20029;-64
2022/06/01 10:21:45;;;;;;;18.30;11.50;;;;;;;13.64;75.63;101414.69;5013566;28;20072;-64
2022/06/01 10:24:31;;;;;;;17.55;12.00;;;;;;;13.45;75.00;101425.13;5013530;28;20049;-64
2022/06/01 10:26:59;;;;;;;19.10;13.43;;;;;;;13.23;75.24;101449.69;5012554;28;20161;-63
2022/06/01 10:29:48;;;;;;;19.63;13.35;;;;;;;12.97;75.08;101438.31;5013677;28;20021;-64
2022/06/01 10:32:42;;;;;;;19.85;14.48;;;;;;;12.85;77.07;101441.56;5013431;28;20034;-64
2022/06/01 10:35:18;;;;;;;20.15;13.13;;;;;;;12.86;78.87;101442.41;5012203;28;20026;-64
2022/06/01 10:38:07;;;;;;;20.38;13.20;;;;;;;12.95;78.47;101435.00;5013779;28;20484;-64
2022/06/01 10:40:43;;;;;;;20.70;14.15;;;;;;;12.98;79.54;101439.13;5013223;28;20018;-64
2022/06/01 10:43:20;;;;;;;19.25;13.82;;;;;;;13.09;79.26;101449.69;5012971;28;20033;-64
2022/06/01 10:46:00;;;;;;;18.50;13.02;;;;;;;13.08;77.57;101453.59;5013095;28;20033;-64
2022/06/01 10:48:29;;;;;;;20.08;14.48;;;;;;;13.05;78.91;101442.28;5012930;28;20026;-64
2022/06/01 10:51:22;;;;;;;20.40;13.93;;;;;;;13.13;79.99;101447.13;5028613;22;20061;-57
2022/06/01 10:53:59;;;;;;;19.65;14.20;;;;;;;13.18;77.19;101444.25;5037589;28;20142;-59
2022/06/01 10:56:26;;;;;;;21.83;15.35;;;;;;;13.27;79.06;101434.06;5052126;28;20032;-58
2022/06/01 10:58:54;;;;;;;20.85;14.98;;;;;;;13.43;77.34;101436.53;5051959;28;20029;-58
2022/06/01 11:01:40;;;;;;;20.15;14.40;;;;;;;13.70;76.33;101430.09;5052081;28;20017;-58
2022/06/01 11:04:47;;;;;;;20.52;13.85;;;;;;;14.00;77.03;101421.34;5052092;28;20025;-58
2022/06/01 11:07:37;;;;;;;19.50;13.68;;;;;;;14.23;75.34;101416.59;5051528;28;20057;-58
2022/06/01 11:10:05;;;;;;;18.63;12.32;;;;;;;14.46;70.35;101422.97;5051554;28;20043;-58
2022/06/01 11:12:53;;;;;;;18.48;11.25;;;;;;;14.66;71.91;101413.28;5050394;28;20029;-58
2022/06/01 11:15:24;;;;;;;16.85;10.57;;;;;;;14.84;68.91;101418.94;5052804;28;20405;-58
2022/06/01 11:17:52;;;;;;;17.23;10.88;;;;;;;14.98;71.00;101413.25;5052824;28;20486;-59
2022/06/01 11:20:42;;;;;;;18.13;10.80;;;;;;;15.20;70.50;101417.09;5052917;28;20036;-60
2022/06/01 11:23:27;;;;;;;17.38;10.90;;;;;;;15.38;67.97;101421.56;5052872;28;20029;-59
2022/06/01 11:26:09;;;;;;;19.25;11.77;;;;;;;15.41;66.76;101420.91;5061602;28;20356;-57
2022/06/01 11:29:00;;;;;;;18.70;12.73;;;;;;;15.49;68.18;101419.28;5072994;28;20029;-59
2022/06/01 11:31:28;;;;;;;19.73;12.90;;;;;;;15.56;69.72;101410.44;5072154;28;20032;-59
2022/06/01 11:34:01;;;;;;;20.10;12.88;;;;;;;15.75;68.84;101410.09;5072481;28;20039;-59
2022/06/01 11:36:32;;;;;;;19.80;12.70;;;;;;;15.84;69.05;101419.31;5072797;28;20024;-57
2022/06/01 11:39:19;;;;;;;19.25;13.00;;;;;;;15.86;66.99;101419.00;5072550;28;20025;-58
2022/06/01 11:42:10;;;;;;;19.73;13.60;;;;;;;15.87;67.19;101412.28;5072869;28;20529;-59
2022/06/01 11:44:38;;;;;;;20.02;13.55;;;;;;;16.12;66.81;101409.78;5072312;28;20021;-59
2022/06/01 11:47:16;;;;;;;19.58;13.40;;;;;;;16.34;66.09;101417.16;5072107;28;20518;-58
2022/06/01 11:50:05;;;;;;;20.85;14.40;;;;;;;16.52;66.41;101409.56;5072277;28;20052;-60
2022/06/01 11:52:43;;;;;;;20.10;13.60;;;;;;;16.78;66.79;101415.03;5071722;28;20052;-59